Time;durP1;ratioP1;P1;durP2;ratioP2;P2;SDS_P1;SDS_P2;PMS_P1;PMS_P2;Temp;Humidity;BMP_temperature;BMP_pressure;BME280_temperature;BME280_humidity;BME280_pressure;Samples;Min_cycle;Max_cycle;Signal;HPM_P1;HPM_P2
2022/04/29 00:01:40;;;;;;;12.35;5.85;;;8.40;99.90;;;;;;5063727;28;20047;-62
2022/04/29 00:04:08;;;;;;;14.85;5.80;;;8.40;99.90;;;;;;5057570;28;20059;-63
2022/04/29 00:06:36;;;;;;;12.68;5.88;;;8.40;99.90;;;;;;5070587;28;20045;-60
2022/04/29 00:09:04;;;;;;;9.60;4.75;;;8.40;99.90;;;;;;5069627;28;20045;-63
2022/04/29 00:11:33;;;;;;;15.48;5.50;;;8.50;99.90;;;;;;5064324;28;20049;-60
2022/04/29 00:14:00;;;;;;;12.85;5.13;;;8.40;99.90;;;;;;5066500;28;20396;-60
2022/04/29 00:16:28;;;;;;;11.45;5.20;;;8.40;99.90;;;;;;5054312;28;20044;-62
2022/04/29 00:18:56;;;;;;;16.00;5.50;;;8.40;99.90;;;;;;5060868;28;20059;-62
2022/04/29 00:21:24;;;;;;;13.73;5.68;;;8.40;99.90;;;;;;5070806;28;20049;-65
2022/04/29 00:23:51;;;;;;;12.38;5.75;;;8.40;99.90;;;;;;5071388;28;20052;-60
2022/04/29 00:26:19;;;;;;;15.27;5.88;;;8.40;99.90;;;;;;5063313;28;20400;-61
2022/04/29 00:28:48;;;;;;;11.75;5.30;;;8.40;99.90;;;;;;5055133;28;20049;-59
2022/04/29 00:31:15;;;;;;;11.27;5.22;;;8.40;99.90;;;;;;5049365;28;20064;-59
2022/04/29 00:33:43;;;;;;;13.65;5.82;;;8.40;99.90;;;;;;5047141;28;20053;-59
2022/04/29 00:36:11;;;;;;;13.60;5.32;;;8.40;99.90;;;;;;5054498;28;20503;-59
2022/04/29 00:38:39;;;;;;;10.88;5.18;;;8.30;99.90;;;;;;5069694;28;20052;-60
2022/04/29 00:41:06;;;;;;;15.10;5.13;;;8.30;99.90;;;;;;5068019;28;20051;-58
2022/04/29 00:43:34;;;;;;;13.15;4.78;;;8.30;99.90;;;;;;5068315;28;20044;-60
2022/04/29 00:46:01;;;;;;;13.18;4.53;;;8.30;99.90;;;;;;5060330;28;20036;-59
2022/04/29 00:48:29;;;;;;;11.05;4.78;;;8.30;99.90;;;;;;5056753;28;20052;-59
2022/04/29 00:50:57;;;;;;;14.20;5.22;;;8.30;99.90;;;;;;5052850;28;20036;-59
2022/04/29 00:53:27;;;;;;;25.17;6.18;;;8.30;99.90;;;;;;5052511;28;20045;-59
2022/04/29 00:55:56;;;;;;;11.73;5.45;;;8.30;99.90;;;;;;5065783;28;20055;-60
2022/04/29 00:58:38;;;;;;;7.33;4.43;;;8.30;99.90;;;;;;5056043;28;20048;-59
2022/04/29 01:01:09;;;;;;;11.00;6.72;;;8.20;99.90;;;;;;5067823;28;20044;-59
2022/04/29 01:03:38;;;;;;;12.60;5.43;;;8.20;99.90;;;;;;5060637;28;20044;-59
2022/04/29 01:06:05;;;;;;;8.55;4.63;;;8.20;99.90;;;;;;5052986;28;20044;-59
2022/04/29 01:08:33;;;;;;;10.15;4.97;;;8.20;99.90;;;;;;5070290;28;20049;-59
2022/04/29 01:11:01;;;;;;;9.60;5.20;;;8.20;99.90;;;;;;5068696;28;20040;-59
2022/04/29 01:13:29;;;;;;;12.45;5.13;;;8.20;99.90;;;;;;5049469;28;20120;-59
2022/04/29 01:15:57;;;;;;;11.77;5.47;;;8.20;99.90;;;;;;5049605;28;20052;-61
2022/04/29 01:18:27;;;;;;;11.43;4.72;;;8.20;99.90;;;;;;5050808;28;20053;-60
2022/04/29 01:21:03;;;;;;;12.90;4.55;;;8.20;99.90;;;;;;5049716;28;20055;-60
2022/04/29 01:23:32;;;;;;;19.98;4.40;;;8.20;99.90;;;;;;5068089;28;20044;-59
2022/04/29 01:26:01;;;;;;;11.30;4.43;;;8.20;99.90;;;;;;5065738;28;20040;-59
2022/04/29 01:28:30;;;;;;;13.27;4.95;;;8.20;99.90;;;;;;5066358;28;20052;-60
2022/04/29 01:30:59;;;;;;;;;;;8.20;99.90;;;;;;5045748;28;20048;-59
2022/04/29 01:33:30;;;;;;;12.38;5.15;;;8.20;99.90;;;;;;5050236;28;19921;-59
2022/04/29 01:35:58;;;;;;;10.98;4.47;;;8.10;99.90;;;;;;5036379;28;20048;-59
2022/04/29 01:38:25;;;;;;;10.80;4.45;;;8.10;99.90;;;;;;5050459;28;20416;-59
2022/04/29 01:40:54;;;;;;;11.02;5.32;;;8.10;99.90;;;;;;5053706;28;20045;-60
2022/04/29 01:43:27;;;;;;;11.98;4.43;;;8.10;99.90;;;;;;5068577;28;20428;-60
2022/04/29 01:45:55;;;;;;;9.85;4.70;;;8.10;99.90;;;;;;5068618;28;20036;-60
2022/04/29 01:48:30;;;;;;;13.50;5.03;;;8.10;99.90;;;;;;5053774;28;20051;-59
2022/04/29 01:51:15;;;;;;;11.65;5.15;;;8.10;99.90;;;;;;5069026;28;20044;-59
2022/04/29 01:53:44;;;;;;;15.15;4.50;;;8.10;99.90;;;;;;5053730;28;20040;-59
2022/04/29 01:56:12;;;;;;;14.85;4.70;;;8.10;99.90;;;;;;5039277;28;20056;-63
2022/04/29 01:58:40;;;;;;;19.42;5.47;;;8.10;99.90;;;;;;5054985;28;20051;-59
2022/04/29 02:01:09;;;;;;;18.40;5.90;;;8.00;99.90;;;;;;5058162;28;20037;-59
2022/04/29 02:03:37;;;;;;;22.15;4.72;;;8.10;99.90;;;;;;5059616;28;20515;-58
2022/04/29 02:06:08;;;;;;;13.85;4.53;;;8.10;99.90;;;;;;5061256;28;20059;-59
2022/04/29 02:08:36;;;;;;;16.05;4.80;;;8.10;99.90;;;;;;5051446;28;20056;-60
2022/04/29 02:11:03;;;;;;;10.55;5.22;;;8.10;99.90;;;;;;5051766;28;20400;-59
2022/04/29 02:13:31;;;;;;;12.13;4.93;;;8.10;99.90;;;;;;5055283;28;20048;-58
2022/04/29 02:16:19;;;;;;;18.55;4.75;;;8.10;99.90;;;;;;5057339;28;20432;-59
2022/04/29 02:18:48;;;;;;;11.40;4.57;;;8.10;99.90;;;;;;5068226;28;20508;-59
2022/04/29 02:21:15;;;;;;;14.95;4.70;;;8.00;99.90;;;;;;5062412;28;20064;-61
2022/04/29 02:23:43;;;;;;;10.88;4.68;;;8.10;99.90;;;;;;5069177;28;20055;-62
2022/04/29 02:26:13;;;;;;;13.77;4.73;;;8.00;99.90;;;;;;5057120;28;20041;-60
2022/04/29 02:28:40;;;;;;;15.32;4.95;;;8.00;99.90;;;;;;5050583;28;20041;-61
2022/04/29 02:31:08;;;;;;;9.45;4.28;;;8.00;99.90;;;;;;5049436;28;20061;-61
2022/04/29 02:33:36;;;;;;;10.43;4.30;;;8.00;99.90;;;;;;5050872;28;20063;-60
2022/04/29 02:36:05;;;;;;;12.55;4.70;;;8.00;99.90;;;;;;5051314;28;20041;-62
2022/04/29 02:38:33;;;;;;;15.13;4.93;;;8.00;99.90;;;;;;5050496;28;20052;-60
2022/04/29 02:41:03;;;;;;;8.75;4.20;;;8.00;99.90;;;;;;5059391;28;20051;-62
2022/04/29 02:43:34;;;;;;;9.85;4.38;;;8.00;99.90;;;;;;5069247;28;20048;-63
2022/04/29 02:46:02;;;;;;;12.65;4.30;;;8.00;99.90;;;;;;5070123;28;20033;-62
2022/04/29 02:48:30;;;;;;;10.98;4.50;;;8.00;99.90;;;;;;5055677;28;20055;-63
2022/04/29 02:50:58;;;;;;;12.40;4.90;;;8.00;99.90;;;;;;5061321;28;20377;-60
2022/04/29 02:53:26;;;;;;;14.40;5.43;;;8.00;99.90;;;;;;5068072;28;20048;-63
2022/04/29 02:55:54;;;;;;;10.25;4.28;;;8.00;99.90;;;;;;5054805;28;20041;-60
2022/04/29 02:58:33;;;;;;;13.60;4.80;;;8.00;99.90;;;;;;5054417;28;20053;-59
2022/04/29 03:01:04;;;;;;;14.27;4.80;;;8.00;99.90;;;;;;5069118;28;20064;-59
2022/04/29 03:03:32;;;;;;;7.60;3.58;;;8.00;99.90;;;;;;5054541;28;20044;-59
2022/04/29 03:06:00;;;;;;;19.90;5.70;;;8.00;99.90;;;;;;5036595;28;20049;-58
2022/04/29 03:08:28;;;;;;;15.48;4.82;;;8.00;99.90;;;;;;5057930;28;20048;-58
2022/04/29 03:10:55;;;;;;;8.80;4.70;;;7.90;99.90;;;;;;5054824;28;20029;-59
2022/04/29 03:13:23;;;;;;;12.73;4.70;;;7.90;99.90;;;;;;5066039;28;20056;-61
2022/04/29 03:15:55;;;;;;;9.93;4.07;;;7.90;99.90;;;;;;5069141;28;20053;-59
2022/04/29 03:18:24;;;;;;;13.85;4.80;;;7.90;99.90;;;;;;5074201;28;20053;-58
2022/04/29 03:20:56;;;;;;;15.95;4.65;;;7.90;99.90;;;;;;5074532;28;20037;-59
2022/04/29 03:23:25;;;;;;;13.43;4.50;;;7.90;99.90;;;;;;5073132;28;20044;-59
2022/04/29 03:25:55;;;;;;;10.52;4.82;;;7.90;99.90;;;;;;5073087;28;20048;-58
2022/04/29 03:28:25;;;;;;;12.68;4.78;;;7.90;99.90;;;;;;5061412;28;20048;-58
2022/04/29 03:30:53;;;;;;;9.05;4.72;;;7.80;99.90;;;;;;5053179;28;20044;-59
2022/04/29 03:33:24;;;;;;;15.95;5.50;;;7.90;99.90;;;;;;5056628;28;20044;-59
2022/04/29 03:35:53;;;;;;;13.80;4.97;;;7.80;99.90;;;;;;5072979;28;20044;-59
2022/04/29 03:38:49;;;;;;;14.35;4.40;;;7.80;99.90;;;;;;5071475;28;20223;-59
2022/04/29 03:41:17;;;;;;;13.55;4.45;;;7.80;99.90;;;;;;5072859;28;20044;-59
2022/04/29 03:43:44;;;;;;;17.83;5.05;;;7.80;99.90;;;;;;5054044;28;20045;-59
2022/04/29 03:46:18;;;;;;;11.63;4.30;;;7.80;99.90;;;;;;5051561;28;20044;-59
2022/04/29 03:51:55;;;;;;;9.35;5.38;;;7.80;99.90;;;;;;5071001;28;20488;-58
2022/04/29 03:54:23;;;;;;;36.05;6.90;;;7.90;99.90;;;;;;5057720;28;20569;-59
2022/04/29 03:56:54;;;;;;;11.63;5.07;;;7.80;99.90;;;;;;5068062;28;20045;-58
2022/04/29 03:59:22;;;;;;;13.93;5.65;;;7.80;99.90;;;;;;5062646;28;20045;-59
2022/04/29 04:01:49;;;;;;;12.25;4.90;;;7.80;99.90;;;;;;5053093;28;20044;-59
2022/04/29 04:04:18;;;;;;;12.80;4.32;;;7.80;99.90;;;;;;5071565;28;20053;-59
2022/04/29 04:06:49;;;;;;;12.13;5.40;;;7.80;99.90;;;;;;5072201;28;20044;-60
2022/04/29 04:09:39;;;;;;;9.13;5.10;;;7.80;99.90;;;;;;5073131;28;20388;-59
2022/04/29 04:12:08;;;;;;;13.10;5.57;;;7.80;99.90;;;;;;5070632;28;20033;-59
2022/04/29 04:14:52;;;;;;;15.63;5.45;;;7.80;99.90;;;;;;5058614;28;20044;-59
2022/04/29 04:17:20;;;;;;;13.50;5.47;;;7.70;99.90;;;;;;5072258;28;20499;-63
2022/04/29 04:19:48;;;;;;;13.77;5.28;;;7.70;99.90;;;;;;5052574;28;20045;-62
2022/04/29 04:22:16;;;;;;;12.63;5.38;;;7.70;99.90;;;;;;5053132;28;20045;-60
2022/04/29 04:24:43;;;;;;;14.05;5.78;;;7.70;99.90;;;;;;5055365;28;20045;-63
2022/04/29 04:27:11;;;;;;;15.23;6.15;;;7.70;99.90;;;;;;5073016;28;20476;-61
2022/04/29 04:29:40;;;;;;;15.68;5.45;;;7.70;99.90;;;;;;5062967;28;20467;-62
2022/04/29 04:32:08;;;;;;;13.18;5.53;;;7.70;99.90;;;;;;5054480;28;20068;-60
2022/04/29 04:34:53;;;;;;;16.02;6.05;;;7.70;99.90;;;;;;5053129;28;20037;-60
2022/04/29 04:37:23;;;;;;;15.02;5.80;;;7.60;99.90;;;;;;5051571;28;20821;-63
2022/04/29 04:39:59;;;;;;;13.55;6.30;;;7.60;99.90;;;;;;5055969;28;20052;-62
2022/04/29 04:42:44;;;;;;;15.02;5.78;;;7.60;99.90;;;;;;5053825;28;20508;-64
2022/04/29 04:45:13;;;;;;;13.60;5.50;;;7.70;99.90;;;;;;5051298;28;20056;-65
2022/04/29 04:47:58;;;;;;;14.45;5.85;;;7.60;99.90;;;;;;5056045;28;20047;-65
2022/04/29 04:50:47;;;;;;;15.48;6.10;;;7.60;99.90;;;;;;5061374;28;20056;-62
2022/04/29 04:53:14;;;;;;;13.43;5.40;;;7.60;99.90;;;;;;5057273;28;20079;-63
2022/04/29 04:55:42;;;;;;;17.00;6.28;;;7.60;99.90;;;;;;5048053;28;20060;-63
2022/04/29 04:58:11;;;;;;;15.43;5.88;;;7.60;99.90;;;;;;5052655;28;20045;-60
2022/04/29 05:00:39;;;;;;;18.17;6.47;;;7.50;99.90;;;;;;5046334;28;20040;-61
2022/04/29 05:03:36;;;;;;;14.80;6.30;;;7.60;99.90;;;;;;5038412;28;20412;-63
2022/04/29 05:06:23;;;;;;;12.77;6.05;;;7.60;99.90;;;;;;5064338;28;20052;-62
2022/04/29 05:08:51;;;;;;;12.77;5.95;;;7.50;99.90;;;;;;5045719;28;20045;-62
2022/04/29 05:11:19;;;;;;;19.88;7.25;;;7.60;99.90;;;;;;5047139;28;20144;-60
2022/04/29 05:14:12;;;;;;;14.63;7.05;;;7.60;99.90;;;;;;5048361;28;20041;-63
2022/04/29 05:16:40;;;;;;;15.98;7.00;;;7.60;99.90;;;;;;5049270;28;20060;-61
2022/04/29 05:19:31;;;;;;;18.33;8.65;;;7.60;99.90;;;;;;5057894;28;20068;-62
2022/04/29 05:22:05;;;;;;;15.32;6.88;;;7.60;99.90;;;;;;5051004;28;20083;-63
2022/04/29 05:24:33;;;;;;;18.48;7.28;;;7.60;99.90;;;;;;5065752;28;20049;-62
2022/04/29 05:27:19;;;;;;;14.13;6.50;;;7.60;99.90;;;;;;5046373;28;20057;-61
2022/04/29 05:30:06;;;;;;;11.80;7.00;;;7.70;99.90;;;;;;5046898;28;20045;-60
2022/04/29 05:32:54;;;;;;;17.48;7.57;;;7.70;99.90;;;;;;5065634;28;20048;-59
2022/04/29 05:35:41;;;;;;;19.00;8.55;;;7.70;99.90;;;;;;5050108;28;20499;-63
2022/04/29 05:44:11;;;;;;;19.50;8.35;;;7.80;99.90;;;;;;5067703;28;20047;-61
2022/04/29 05:46:39;;;;;;;19.75;9.30;;;7.80;99.90;;;;;;5064740;28;20045;-63
2022/04/29 05:49:07;;;;;;;15.57;8.70;;;7.80;99.90;;;;;;5061367;28;20048;-63
2022/04/29 05:51:40;;;;;;;23.45;8.70;;;7.80;99.90;;;;;;5052440;28;20357;-62
2022/04/29 05:54:09;;;;;;;18.90;9.48;;;7.90;99.90;;;;;;5057167;28;20052;-63
2022/04/29 05:56:37;;;;;;;20.35;9.35;;;7.90;99.90;;;;;;5068653;28;20047;-62
2022/04/29 05:59:09;;;;;;;19.00;8.85;;;7.90;99.90;;;;;;5064880;28;20067;-65
2022/04/29 06:01:52;;;;;;;16.73;8.43;;;7.90;99.90;;;;;;5050164;28;20045;-59
2022/04/29 06:04:24;;;;;;;20.40;8.30;;;7.90;99.90;;;;;;5050676;28;20496;-63
2022/04/29 06:06:52;;;;;;;17.60;8.32;;;7.90;99.90;;;;;;5047080;28;20041;-62
2022/04/29 06:09:20;;;;;;;18.83;9.07;;;7.90;99.90;;;;;;5057551;28;20053;-59
2022/04/29 06:11:47;;;;;;;22.92;10.63;;;7.90;99.90;;;;;;5050626;28;20043;-62
2022/04/29 06:14:26;;;;;;;19.15;8.68;;;7.90;99.90;;;;;;5063498;28;20048;-61
2022/04/29 06:17:16;;;;;;;19.60;9.23;;;7.90;99.90;;;;;;5050962;28;20036;-64
2022/04/29 06:20:05;;;;;;;22.55;8.50;;;7.80;99.90;;;;;;5054939;28;20052;-62
2022/04/29 06:23:05;;;;;;;15.02;8.80;;;7.90;99.90;;;;;;5072057;28;20067;-61
2022/04/29 06:25:34;;;;;;;18.27;8.80;;;7.80;99.90;;;;;;5060193;28;20044;-62
2022/04/29 06:28:02;;;;;;;18.77;8.70;;;7.80;99.90;;;;;;5049048;28;20400;-62
2022/04/29 06:30:32;;;;;;;19.45;8.43;;;7.80;99.90;;;;;;5051157;28;20053;-61
2022/04/29 06:33:42;;;;;;;16.77;8.45;;;7.80;99.90;;;;;;5048665;28;20044;-59
2022/04/29 06:36:14;;;;;;;18.80;9.90;;;7.90;99.90;;;;;;5040884;28;20060;-59
2022/04/29 06:38:46;;;;;;;15.18;9.07;;;7.90;99.90;;;;;;5055113;28;20524;-61
2022/04/29 06:41:25;;;;;;;18.50;8.77;;;7.90;99.90;;;;;;5052676;28;20396;-59
2022/04/29 06:44:13;;;;;;;21.10;9.20;;;7.90;99.90;;;;;;5052060;28;20064;-59
2022/04/29 06:47:07;;;;;;;15.57;8.43;;;8.00;99.90;;;;;;5059615;28;20620;-59
2022/04/29 06:49:53;;;;;;;23.10;9.05;;;8.00;99.90;;;;;;5059407;28;20052;-59
2022/04/29 06:52:39;;;;;;;17.40;9.23;;;8.00;99.90;;;;;;5052977;28;20048;-59
2022/04/29 06:55:17;;;;;;;23.90;9.60;;;8.10;99.90;;;;;;5060818;28;20036;-60
2022/04/29 06:57:46;;;;;;;15.52;8.27;;;8.10;99.90;;;;;;5063896;28;20044;-60
2022/04/29 07:00:15;;;;;;;17.35;8.38;;;8.20;99.90;;;;;;5054535;28;20044;-63
2022/04/29 07:02:43;;;;;;;16.40;8.82;;;8.20;99.90;;;;;;5051021;28;20044;-60
2022/04/29 07:05:12;;;;;;;14.32;8.07;;;8.30;99.90;;;;;;5047732;28;20404;-60
2022/04/29 07:07:40;;;;;;;17.85;8.43;;;8.30;99.90;;;;;;5049735;28;20408;-60
2022/04/29 07:10:34;;;;;;;14.43;8.13;;;8.30;99.90;;;;;;5056137;28;20048;-63
2022/04/29 07:13:23;;;;;;;18.33;8.32;;;8.40;99.90;;;;;;5052492;28;20052;-60
2022/04/29 07:15:51;;;;;;;16.42;8.43;;;8.40;99.90;;;;;;5060303;28;20063;-62
2022/04/29 07:18:51;;;;;;;16.08;7.85;;;8.50;99.90;;;;;;5051972;28;20527;-62
2022/04/29 07:21:19;;;;;;;14.40;7.43;;;8.50;99.90;;;;;;5059811;28;20055;-60
2022/04/29 07:23:47;;;;;;;18.17;8.20;;;8.50;99.90;;;;;;5058510;28;20049;-61
2022/04/29 07:26:16;;;;;;;10.23;6.38;;;9.10;99.90;;;;;;5051199;28;20040;-61
2022/04/29 07:28:45;;;;;;;14.05;5.65;;;8.50;99.90;;;;;;5057558;28;20060;-63
2022/04/29 07:31:18;;;;;;;10.85;6.28;;;8.50;99.90;;;;;;5053940;28;20877;-61
2022/04/29 07:34:12;;;;;;;14.00;5.50;;;8.60;99.90;;;;;;5043182;28;20057;-62
2022/04/29 07:42:32;;;;;;;11.27;5.22;;;8.70;99.90;;;;;;5060948;28;20041;-62
2022/04/29 07:45:00;;;;;;;12.10;6.05;;;8.70;99.90;;;;;;5052327;28;20377;-62
2022/04/29 07:47:46;;;;;;;13.45;6.25;;;8.70;99.90;;;;;;5066461;28;20048;-60
2022/04/29 07:50:30;;;;;;;8.40;5.78;;;8.70;99.90;;;;;;5060577;28;20956;-62
2022/04/29 07:53:00;;;;;;;13.52;5.88;;;8.80;99.90;;;;;;5050263;28;20049;-63
2022/04/29 07:55:28;;;;;;;16.73;7.35;;;8.80;99.90;;;;;;5048971;28;20064;-60
2022/04/29 07:57:56;;;;;;;12.52;6.78;;;8.90;99.90;;;;;;5057518;28;20428;-64
2022/04/29 08:00:24;;;;;;;13.98;7.38;;;9.00;99.50;;;;;;5067734;28;20051;-60
2022/04/29 08:02:52;;;;;;;13.27;6.22;;;9.10;99.70;;;;;;5049370;28;20045;-60
2022/04/29 08:05:40;;;;;;;13.93;5.88;;;9.20;98.90;;;;;;5050996;28;20054;-60
2022/04/29 08:08:09;;;;;;;15.68;5.72;;;9.30;98.20;;;;;;5057760;28;20076;-59
2022/04/29 08:10:37;;;;;;;16.40;6.15;;;9.40;97.30;;;;;;5068993;28;20051;-59
2022/04/29 08:13:06;;;;;;;15.63;5.97;;;9.40;96.60;;;;;;5058446;28;20056;-58
2022/04/29 08:15:52;;;;;;;10.48;6.38;;;9.50;96.40;;;;;;5051310;28;20424;-59
2022/04/29 08:18:38;;;;;;;14.63;6.32;;;9.60;96.00;;;;;;5071058;28;20036;-59
2022/04/29 08:21:07;;;;;;;15.45;7.10;;;9.60;96.00;;;;;;5062767;28;20037;-60
2022/04/29 08:23:34;;;;;;;11.15;5.85;;;9.70;96.10;;;;;;5062848;28;20499;-62
2022/04/29 08:26:02;;;;;;;14.13;5.50;;;9.70;95.60;;;;;;5061863;28;20056;-64
2022/04/29 08:28:31;;;;;;;16.90;7.03;;;9.70;96.10;;;;;;5062642;28;20049;-63
2022/04/29 08:30:59;;;;;;;12.17;7.07;;;9.70;95.90;;;;;;5070009;28;20040;-62
2022/04/29 08:33:47;;;;;;;14.05;6.20;;;9.80;95.00;;;;;;5067096;28;20047;-62
2022/04/29 08:36:17;;;;;;;12.50;6.60;;;9.80;95.10;;;;;;5049699;28;20045;-59
2022/04/29 08:38:46;;;;;;;12.98;5.93;;;9.80;95.60;;;;;;5051143;28;20040;-60
2022/04/29 08:41:18;;;;;;;12.07;5.40;;;9.90;95.80;;;;;;5053635;28;20045;-60
2022/04/29 08:43:50;;;;;;;13.75;6.28;;;10.00;95.70;;;;;;5056163;28;20052;-60
2022/04/29 08:46:33;;;;;;;12.10;6.15;;;10.10;95.40;;;;;;5055691;28;20059;-59
2022/04/29 08:49:10;;;;;;;9.98;5.47;;;10.10;95.60;;;;;;5059016;28;20052;-59
2022/04/29 08:51:39;;;;;;;11.05;6.03;;;10.20;95.20;;;;;;5048830;28;20052;-58
2022/04/29 08:54:06;;;;;;;12.48;6.30;;;10.20;95.30;;;;;;5061204;28;20423;-58
2022/04/29 08:59:26;;;;;;;11.98;5.57;;;10.30;95.00;;;;;;5053386;28;20044;-59
2022/04/29 09:01:54;;;;;;;8.85;5.22;;;10.30;94.70;;;;;;5056225;28;20056;-59
2022/04/29 09:04:22;;;;;;;15.38;6.28;;;10.30;95.10;;;;;;5057803;28;20041;-59
2022/04/29 09:06:51;;;;;;;10.55;5.13;;;10.40;95.30;;;;;;5053273;28;20053;-58
2022/04/29 09:09:21;;;;;;;11.43;6.28;;;10.40;94.20;;;;;;5051894;28;20056;-58
2022/04/29 09:11:49;;;;;;;12.02;5.85;;;10.40;93.40;;;;;;5052482;28;20037;-58
2022/04/29 09:14:24;;;;;;;16.17;6.50;;;10.40;92.80;;;;;;5049927;28;20049;-58
2022/04/29 09:16:54;;;;;;;10.23;5.45;;;10.40;93.50;;;;;;5050570;28;20041;-58
2022/04/29 09:19:33;;;;;;;11.85;5.38;;;10.50;93.80;;;;;;5069104;28;20522;-58
2022/04/29 09:22:07;;;;;;;13.20;5.05;;;10.60;93.90;;;;;;5070138;28;20044;-58
2022/04/29 09:25:00;;;;;;;11.10;5.68;;;10.80;93.90;;;;;;5068878;28;20040;-58
2022/04/29 09:27:53;;;;;;;14.13;5.47;;;11.10;93.60;;;;;;5070384;28;20048;-58
2022/04/29 09:30:38;;;;;;;11.68;6.10;;;11.30;92.50;;;;;;5048969;28;20500;-58
2022/04/29 09:33:32;;;;;;;10.75;6.38;;;11.50;92.30;;;;;;5038823;28;20052;-59
2022/04/29 09:36:26;;;;;;;13.63;6.03;;;11.60;91.80;;;;;;5050218;28;20049;-59
2022/04/29 09:42:00;;;;;;;10.88;5.60;;;11.90;90.90;;;;;;5068648;28;20048;-58
2022/04/29 09:44:31;;;;;;;11.93;5.50;;;12.10;90.00;;;;;;5055920;28;20075;-59
2022/04/29 09:47:20;;;;;;;14.25;5.80;;;12.20;89.60;;;;;;5049864;28;20052;-61
2022/04/29 09:49:59;;;;;;;14.18;5.72;;;12.30;89.50;;;;;;5049809;28;20045;-60
2022/04/29 09:52:30;;;;;;;12.35;6.05;;;12.30;90.00;;;;;;5048567;28;20065;-62
2022/04/29 09:55:10;;;;;;;16.70;6.00;;;12.40;87.80;;;;;;5049326;28;20045;-60
2022/04/29 09:58:01;;;;;;;14.18;5.80;;;12.40;86.60;;;;;;5053774;28;20052;-61
2022/04/29 10:00:29;;;;;;;10.90;5.75;;;12.30;86.50;;;;;;5048818;28;20045;-64
2022/04/29 10:02:58;;;;;;;11.75;5.78;;;12.20;87.00;;;;;;5049660;28;20053;-62
2022/04/29 10:05:29;;;;;;;17.35;6.65;;;12.10;88.00;;;;;;5047775;28;20041;-61
2022/04/29 10:08:05;;;;;;;14.05;6.22;;;12.10;88.00;;;;;;5050047;28;20052;-61
2022/04/29 10:10:34;;;;;;;11.43;6.25;;;12.00;87.70;;;;;;5053748;28;20056;-61
2022/04/29 10:13:04;;;;;;;20.15;6.82;;;12.10;87.40;;;;;;5057695;28;20045;-59
2022/04/29 10:15:41;;;;;;;11.50;6.43;;;12.10;87.00;;;;;;5052540;28;20044;-62
2022/04/29 10:21:51;;;;;;;11.70;5.50;;;12.10;88.00;;;;;;5047855;28;20045;-60
2022/04/29 10:24:23;;;;;;;10.27;5.93;;;12.30;87.50;;;;;;5060717;28;20045;-62
2022/04/29 10:26:53;;;;;;;14.82;5.78;;;12.40;86.50;;;;;;5052408;28;20049;-64
2022/04/29 10:29:21;;;;;;;12.35;5.95;;;12.50;85.60;;;;;;5049776;28;20036;-62
2022/04/29 10:32:09;;;;;;;12.48;5.40;;;12.70;85.10;;;;;;5050925;28;20615;-62
2022/04/29 10:34:37;;;;;;;12.75;6.10;;;12.90;83.80;;;;;;5047551;28;20052;-60
2022/04/29 10:37:14;;;;;;;13.68;6.30;;;12.90;82.00;;;;;;5046934;28;20587;-63
2022/04/29 10:40:10;;;;;;;11.35;5.18;;;13.00;81.60;;;;;;5047938;28;20052;-64
2022/04/29 10:43:08;;;;;;;10.38;5.43;;;13.10;82.70;;;;;;5055792;28;20049;-59
2022/04/29 10:45:57;;;;;;;11.30;4.60;;;13.30;83.80;;;;;;5057388;28;20045;-62
2022/04/29 10:48:36;;;;;;;14.35;5.35;;;13.40;85.60;;;;;;5061333;28;20056;-59
2022/04/29 10:51:25;;;;;;;9.48;5.85;;;13.50;84.80;;;;;;5057574;28;20056;-63
2022/04/29 10:54:07;;;;;;;13.02;5.63;;;13.70;84.00;;;;;;5058923;28;20053;-62
2022/04/29 10:57:12;;;;;;;9.52;5.30;;;13.80;84.00;;;;;;5037693;28;20048;-61
2022/04/29 10:59:49;;;;;;;12.50;4.78;;;13.90;82.90;;;;;;5054559;28;20045;-62
2022/04/29 11:02:31;;;;;;;11.02;4.95;;;13.90;80.40;;;;;;5052731;28;20048;-59
2022/04/29 11:05:01;;;;;;;8.65;4.38;;;13.90;81.20;;;;;;5060681;28;20044;-62
2022/04/29 11:07:42;;;;;;;10.88;5.07;;;14.00;81.30;;;;;;5057772;28;20111;-60
2022/04/29 11:10:13;;;;;;;10.30;5.32;;;14.00;79.80;;;;;;5052870;28;20068;-62
2022/04/29 11:13:00;;;;;;;10.30;5.47;;;14.10;80.30;;;;;;5052214;28;20045;-60
2022/04/29 11:15:46;;;;;;;8.80;5.30;;;14.20;81.00;;;;;;5055200;28;20055;-58
2022/04/29 11:18:42;;;;;;;9.70;4.97;;;14.30;79.30;;;;;;5057365;28;20148;-58
2022/04/29 11:26:52;;;;;;;13.50;5.63;;;14.50;80.00;;;;;;5053380;28;20052;-58
2022/04/29 11:29:20;;;;;;;8.00;5.07;;;14.40;78.10;;;;;;5069926;28;20048;-59
2022/04/29 11:32:02;;;;;;;9.93;5.40;;;14.50;79.00;;;;;;5051221;28;20053;-58
2022/04/29 11:34:51;;;;;;;9.50;5.40;;;14.60;78.70;;;;;;5053495;28;20053;-59
2022/04/29 11:37:33;;;;;;;13.43;6.35;;;14.80;79.30;;;;;;5055159;28;20048;-58
2022/04/29 11:40:04;;;;;;;10.18;5.65;;;15.10;78.80;;;;;;5067204;28;20791;-58
2022/04/29 11:42:33;;;;;;;11.05;5.82;;;15.40;78.90;;;;;;5053498;28;20061;-58
2022/04/29 11:45:10;;;;;;;12.23;5.40;;;15.60;78.50;;;;;;5053176;28;20045;-58
2022/04/29 11:47:40;;;;;;;11.20;6.22;;;15.70;76.50;;;;;;5056026;28;20041;-59
2022/04/29 11:50:08;;;;;;;10.25;5.20;;;15.80;77.20;;;;;;5069094;28;20056;-58
2022/04/29 11:52:39;;;;;;;12.85;5.80;;;15.80;76.40;;;;;;5061708;28;20068;-59
2022/04/29 11:55:13;;;;;;;10.80;5.88;;;16.00;76.80;;;;;;5052296;28;20056;-59
2022/04/29 11:57:54;;;;;;;10.13;5.90;;;16.20;76.40;;;;;;5054002;28;20447;-59
2022/04/29 12:00:34;;;;;;;10.57;5.47;;;16.60;72.80;;;;;;5034426;28;20052;-59
2022/04/29 12:03:04;;;;;;;8.70;5.30;;;16.80;72.30;;;;;;5058254;28;20056;-59
2022/04/29 12:05:32;;;;;;;12.93;5.65;;;17.00;70.40;;;;;;5063569;28;20055;-59
2022/04/29 12:08:14;;;;;;;9.35;5.30;;;17.20;70.00;;;;;;5048535;28;20116;-59
2022/04/29 12:10:49;;;;;;;11.70;6.30;;;17.50;70.00;;;;;;5048595;28;20041;-59
2022/04/29 12:13:18;;;;;;;12.68;5.55;;;17.80;68.30;;;;;;5052723;28;20485;-59
2022/04/29 12:15:54;;;;;;;10.40;5.47;;;18.10;68.40;;;;;;5060862;28;20045;-59
2022/04/29 12:18:57;;;;;;;11.07;5.47;;;18.30;65.60;;;;;;5060948;28;20052;-59
2022/04/29 12:21:30;;;;;;;10.13;5.18;;;18.70;66.50;;;;;;5053503;28;20056;-59
2022/04/29 12:24:13;;;;;;;12.65;5.32;;;19.00;65.10;;;;;;5058259;28;20055;-59
2022/04/29 12:27:01;;;;;;;9.65;5.78;;;19.30;63.30;;;;;;5054212;28;20056;-59
2022/04/29 12:34:47;;;;;;;11.35;5.72;;;19.40;62.30;;;;;;5051915;28;20063;-59
2022/04/29 12:35:33;;;;;;;12.88;5.68;;;19.00;60.70;;;;;;5052152;28;20060;-61
2022/04/29 12:38:16;;;;;;;9.55;5.28;;;18.90;61.40;;;;;;5053333;28;20041;-60
2022/04/29 12:40:45;;;;;;;11.45;5.30;;;19.20;62.80;;;;;;5056907;28;20040;-59
2022/04/29 12:43:14;;;;;;;10.40;5.45;;;19.50;60.70;;;;;;5050992;28;20504;-62
2022/04/29 12:45:46;;;;;;;12.35;5.30;;;19.80;59.90;;;;;;5055481;28;20041;-60
2022/04/29 12:48:28;;;;;;;7.85;4.85;;;20.00;59.50;;;;;;5050443;28;20068;-60
2022/04/29 12:50:57;;;;;;;11.48;4.75;;;20.20;60.10;;;;;;5058623;28;20045;-60
2022/04/29 12:53:30;;;;;;;10.90;5.50;;;20.60;59.60;;;;;;5052459;28;20056;-61
2022/04/29 12:55:58;;;;;;;12.00;5.18;;;20.90;57.70;;;;;;5052862;28;20049;-64
2022/04/29 12:58:38;;;;;;;9.38;4.95;;;21.00;56.60;;;;;;5060415;28;20044;-60
2022/04/29 13:01:06;;;;;;;11.10;5.10;;;21.10;56.30;;;;;;5059548;28;20045;-62
2022/04/29 13:03:39;;;;;;;8.20;5.32;;;21.20;55.70;;;;;;5049182;28;20041;-62
2022/04/29 13:06:24;;;;;;;10.65;5.60;;;21.20;54.50;;;;;;5050437;28;20060;-59
2022/04/29 13:08:54;;;;;;;9.57;5.30;;;21.10;55.40;;;;;;5060115;28;20049;-59
2022/04/29 13:11:25;;;;;;;12.48;5.00;;;21.10;54.80;;;;;;5058493;28;20048;-60
2022/04/29 13:13:54;;;;;;;11.25;4.63;;;21.30;56.20;;;;;;5059007;28;20409;-59
2022/04/29 13:16:37;;;;;;;11.80;5.30;;;21.50;56.10;;;;;;5052245;28;20056;-59
2022/04/29 13:19:05;;;;;;;15.43;5.03;;;21.70;54.50;;;;;;5061106;28;20040;-60
2022/04/29 13:21:44;;;;;;;10.88;4.80;;;21.80;53.20;;;;;;5053045;28;20045;-59
2022/04/29 13:24:16;;;;;;;11.02;5.10;;;21.80;52.40;;;;;;5052202;28;20045;-59
2022/04/29 13:26:46;;;;;;;13.73;5.60;;;21.80;52.60;;;;;;5042562;28;20060;-60
2022/04/29 13:29:15;;;;;;;11.05;6.00;;;21.80;53.70;;;;;;5053775;28;20045;-59
2022/04/29 13:31:46;;;;;;;13.00;5.40;;;21.80;52.50;;;;;;5055102;28;20056;-61
2022/04/29 13:34:21;;;;;;;8.38;4.68;;;21.90;53.20;;;;;;5051574;28;20040;-60
2022/04/29 13:36:49;;;;;;;8.98;4.63;;;21.90;52.10;;;;;;5051482;28;20529;-64
2022/04/29 13:39:22;;;;;;;10.05;5.22;;;21.80;51.60;;;;;;5058463;28;20126;-62
2022/04/29 13:42:20;;;;;;;9.60;5.30;;;21.80;52.70;;;;;;5053240;28;20052;-60
2022/04/29 13:44:50;;;;;;;13.05;5.30;;;22.10;52.70;;;;;;5054541;28;20044;-63
2022/04/29 13:47:19;;;;;;;12.60;6.38;;;22.10;51.00;;;;;;5064305;28;20052;-59
2022/04/29 13:49:49;;;;;;;10.40;6.25;;;22.10;51.20;;;;;;5049901;28;20045;-59
2022/04/29 13:55:03;;;;;;;8.70;5.47;;;21.90;50.50;;;;;;5051910;28;20036;-59
2022/04/29 13:57:32;;;;;;;13.60;6.00;;;21.90;50.50;;;;;;5054543;28;20044;-60